Back to Top

Language: 

My Weather Underground Personal Weather Station Historical Data with Graphs...

Delerius Weather Station Historical Data
Daily Summary for December 12, 2017 Units:  English    Metric   Both
« Previous Day
Next Day »
Daily Weekly Monthly Yearly Custom
  High: Low: Average:
Temperature: 41.0 °F 24.8 °F 34.5 °F
Dew Point: 38.0 °F 22.8 °F 31.5 °F
Humidity: 95 % 81 % 89 %
Wind Speed: 16.0 mph 0.0 mph 5.3 mph
Wind Gust: 30.0 mph - -
Wind:- - WSW
Pressure: 29.72 in 29.50 in -
Precipitation: 0.04 in    
Historical Graphs
 
 
Tabular Data for December 12, 2017
Time Temperature Dew Point Pressure Wind Wind Speed Wind Gust Humidity Rainfall Rate (Hourly) solar Conditions
00:01 31.1 °F 28.5 °F 29.51 in NW 7.0 mph 10.0 mph 90 % 0.00 in 0 W/m2
00:06 31.3 °F 28.7 °F 29.51 in NW 7.0 mph 11.0 mph 90 % 0.00 in 0 W/m2
00:11 31.3 °F 28.7 °F 29.51 in NW 7.0 mph 10.0 mph 90 % 0.00 in 0 W/m2
00:16 31.5 °F 28.9 °F 29.52 in WNW 7.0 mph 11.0 mph 90 % 0.00 in 0 W/m2
00:21 31.5 °F 28.9 °F 29.51 in NW 6.0 mph 9.0 mph 90 % 0.00 in 0 W/m2
00:26 31.6 °F 29.0 °F 29.51 in NW 6.0 mph 9.0 mph 90 % 0.00 in 0 W/m2
00:31 31.6 °F 29.0 °F 29.51 in NW 6.0 mph 9.0 mph 90 % 0.00 in 0 W/m2
00:36 31.6 °F 29.0 °F 29.51 in NW 6.0 mph 8.0 mph 90 % 0.00 in 0 W/m2
00:41 31.8 °F 29.2 °F 29.52 in NW 5.0 mph 9.0 mph 90 % 0.00 in 0 W/m2
00:46 31.8 °F 29.2 °F 29.52 in NW 7.0 mph 11.0 mph 90 % 0.00 in 0 W/m2
00:51 32.2 °F 29.6 °F 29.53 in NW 7.0 mph 10.0 mph 90 % 0.00 in 0 W/m2
00:56 32.2 °F 29.3 °F 29.52 in WNW 7.0 mph 11.0 mph 89 % 0.00 in 0 W/m2
01:01 32.4 °F 29.5 °F 29.53 in NW 7.0 mph 11.0 mph 89 % 0.00 in 0 W/m2
01:06 32.4 °F 29.5 °F 29.53 in NW 6.0 mph 10.0 mph 89 % 0.00 in 0 W/m2
01:11 32.4 °F 29.5 °F 29.54 in WNW 6.0 mph 10.0 mph 89 % 0.00 in 0 W/m2
01:16 32.4 °F 29.5 °F 29.54 in NW 6.0 mph 10.0 mph 89 % 0.00 in 0 W/m2
01:21 32.4 °F 29.5 °F 29.54 in NW 6.0 mph 9.0 mph 89 % 0.00 in 0 W/m2
01:26 32.4 °F 29.2 °F 29.55 in NW 7.0 mph 11.0 mph 88 % 0.00 in 0 W/m2
01:31 32.4 °F 29.2 °F 29.55 in NW 6.0 mph 10.0 mph 88 % 0.00 in 0 W/m2
01:36 32.4 °F 29.2 °F 29.56 in NW 7.0 mph 11.0 mph 88 % 0.00 in 0 W/m2
01:41 32.2 °F 29.0 °F 29.56 in WNW 6.0 mph 9.0 mph 88 % 0.00 in 0 W/m2
01:46 32.2 °F 29.0 °F 29.56 in WNW 5.0 mph 10.0 mph 88 % 0.00 in 0 W/m2
01:51 32.2 °F 29.0 °F 29.57 in WNW 5.0 mph 9.0 mph 88 % 0.00 in 0 W/m2
01:56 32.0 °F 29.1 °F 29.57 in WNW 5.0 mph 8.0 mph 89 % 0.00 in 0 W/m2
02:01 32.0 °F 29.1 °F 29.57 in WNW 6.0 mph 9.0 mph 89 % 0.00 in 0 W/m2
02:06 32.0 °F 29.1 °F 29.58 in WNW 5.0 mph 7.0 mph 89 % 0.00 in 0 W/m2
02:11 32.0 °F 29.1 °F 29.58 in WNW 6.0 mph 9.0 mph 89 % 0.00 in 0 W/m2
02:16 31.8 °F 28.7 °F 29.58 in WNW 5.0 mph 7.0 mph 88 % 0.00 in 0 W/m2
02:21 31.6 °F 28.5 °F 29.58 in WNW 4.0 mph 9.0 mph 88 % 0.00 in 0 W/m2
02:26 31.6 °F 28.5 °F 29.58 in West 3.0 mph 6.0 mph 88 % 0.00 in 0 W/m2
02:31 31.5 °F 28.3 °F 29.58 in West 2.0 mph 3.0 mph 88 % 0.00 in 0 W/m2
02:36 31.3 °F 28.1 °F 29.59 in West 4.0 mph 6.0 mph 88 % 0.00 in 0 W/m2
02:42 30.9 °F 27.8 °F 29.59 in West 4.0 mph 6.0 mph 88 % 0.00 in 0 W/m2
02:47 30.6 °F 27.4 °F 29.60 in WNW 4.0 mph 6.0 mph 88 % 0.00 in 0 W/m2
02:52 30.4 °F 27.3 °F 29.60 in WNW 4.0 mph 6.0 mph 88 % 0.00 in 0 W/m2
02:57 30.0 °F 27.2 °F 29.60 in WNW 5.0 mph 6.0 mph 89 % 0.00 in 0 W/m2
03:02 30.0 °F 27.2 °F 29.60 in WNW 5.0 mph 6.0 mph 89 % 0.00 in 0 W/m2
03:07 30.0 °F 27.4 °F 29.61 in WNW 5.0 mph 7.0 mph 90 % 0.00 in 0 W/m2
03:12 30.2 °F 27.6 °F 29.61 in WNW 5.0 mph 8.0 mph 90 % 0.00 in 0 W/m2
03:17 30.6 °F 28.0 °F 29.61 in NW 5.0 mph 10.0 mph 90 % 0.00 in 0 W/m2
03:22 30.7 °F 28.4 °F 29.61 in NW 6.0 mph 9.0 mph 91 % 0.00 in 0 W/m2
03:27 30.9 °F 28.3 °F 29.61 in WNW 7.0 mph 12.0 mph 90 % 0.00 in 0 W/m2
03:37 31.3 °F 28.7 °F 29.61 in WNW 7.0 mph 10.0 mph 90 % 0.00 in 0 W/m2
03:42 31.3 °F 28.4 °F 29.61 in West 6.0 mph 7.0 mph 89 % 0.00 in 0 W/m2
03:47 31.1 °F 28.0 °F 29.62 in West 4.0 mph 6.0 mph 88 % 0.00 in 0 W/m2
03:52 30.7 °F 27.6 °F 29.62 in West 3.0 mph 6.0 mph 88 % 0.00 in 0 W/m2
03:57 30.6 °F 27.4 °F 29.62 in West 2.0 mph 4.0 mph 88 % 0.00 in 0 W/m2
04:02 30.4 °F 27.3 °F 29.62 in West 4.0 mph 6.0 mph 88 % 0.00 in 0 W/m2
04:07 30.0 °F 26.9 °F 29.62 in WNW 5.0 mph 7.0 mph 88 % 0.00 in 0 W/m2
04:12 29.8 °F 27.0 °F 29.62 in WNW 6.0 mph 8.0 mph 89 % 0.00 in 0 W/m2
04:17 29.8 °F 27.0 °F 29.62 in WNW 4.0 mph 6.0 mph 89 % 0.00 in 0 W/m2
04:22 29.8 °F 27.0 °F 29.62 in WNW 3.0 mph 5.0 mph 89 % 0.00 in 0 W/m2
04:27 29.8 °F 27.0 °F 29.63 in NW 5.0 mph 6.0 mph 89 % 0.00 in 0 W/m2
04:32 29.8 °F 27.0 °F 29.63 in WNW 3.0 mph 5.0 mph 89 % 0.00 in 0 W/m2
04:37 29.7 °F 26.8 °F 29.63 in WNW 2.0 mph 4.0 mph 89 % 0.00 in 0 W/m2
04:42 29.5 °F 26.6 °F 29.63 in WNW 1.0 mph 2.0 mph 89 % 0.00 in 0 W/m2
04:47 28.9 °F 26.1 °F 29.63 in WNW 1.0 mph 2.0 mph 89 % 0.00 in 0 W/m2
04:52 28.8 °F 25.7 °F 29.63 in Calm   1.0 mph 88 % 0.00 in 0 W/m2
04:57 28.6 °F 25.8 °F 29.63 in Calm     89 % 0.00 in 0 W/m2
05:02 28.2 °F 25.4 °F 29.63 in Calm     89 % 0.00 in 0 W/m2
05:07 27.9 °F 25.0 °F 29.64 in WNW 2.0 mph 4.0 mph 89 % 0.00 in 0 W/m2
05:12 27.5 °F 24.7 °F 29.64 in West 2.0 mph 4.0 mph 89 % 0.00 in 0 W/m2
05:17 27.1 °F 24.3 °F 29.63 in West 2.0 mph 4.0 mph 89 % 0.00 in 0 W/m2
05:22 27.0 °F 24.4 °F 29.63 in West 2.0 mph 3.0 mph 90 % 0.00 in 0 W/m2
05:27 26.8 °F 24.2 °F 29.63 in West 1.0 mph 3.0 mph 90 % 0.00 in 0 W/m2
05:32 26.8 °F 24.2 °F 29.64 in Calm   2.0 mph 90 % 0.00 in 0 W/m2
05:38 26.6 °F 24.1 °F 29.64 in West 2.0 mph 4.0 mph 90 % 0.00 in 0 W/m2
05:43 26.4 °F 24.1 °F 29.64 in WNW 3.0 mph 4.0 mph 91 % 0.00 in 0 W/m2
05:48 26.6 °F 24.3 °F 29.65 in WNW 4.0 mph 5.0 mph 91 % 0.00 in 0 W/m2
05:53 26.6 °F 24.3 °F 29.64 in WNW 1.0 mph 2.0 mph 91 % 0.00 in 0 W/m2
05:58 26.6 °F 24.3 °F 29.64 in WNW 1.0 mph 2.0 mph 91 % 0.00 in 0 W/m2
06:03 26.6 °F 24.3 °F 29.64 in WNW 2.0 mph 3.0 mph 91 % 0.00 in 0 W/m2
06:08 26.4 °F 24.1 °F 29.65 in Calm     91 % 0.00 in 0 W/m2
06:13 26.4 °F 24.1 °F 29.65 in Calm     91 % 0.00 in 0 W/m2
06:18 26.2 °F 24.0 °F 29.65 in WNW 1.0 mph 2.0 mph 91 % 0.00 in 0 W/m2
06:23 26.1 °F 23.8 °F 29.65 in WNW 2.0 mph 2.0 mph 91 % 0.00 in 0 W/m2
06:28 25.7 °F 23.4 °F 29.65 in WNW 1.0 mph 2.0 mph 91 % 0.00 in 0 W/m2
06:33 25.5 °F 23.3 °F 29.66 in WNW 2.0 mph 4.0 mph 91 % 0.00 in 0 W/m2
06:38 25.3 °F 23.1 °F 29.66 in WNW 1.0 mph 3.0 mph 91 % 0.00 in 0 W/m2
06:43 25.3 °F 23.1 °F 29.66 in WNW 3.0 mph 5.0 mph 91 % 0.00 in 0 W/m2
06:48 25.2 °F 22.9 °F 29.67 in Calm   1.0 mph 91 % 0.00 in 0 W/m2
06:53 25.2 °F 23.2 °F 29.67 in WNW 1.0 mph 3.0 mph 92 % 0.00 in 0 W/m2
06:58 25.2 °F 23.2 °F 29.67 in Calm   1.0 mph 92 % 0.00 in 0 W/m2
07:03 25.0 °F 23.0 °F 29.68 in WNW 1.0 mph 2.0 mph 92 % 0.00 in 0 W/m2
07:08 24.8 °F 22.8 °F 29.68 in WNW 1.0 mph 2.0 mph 92 % 0.00 in 0 W/m2
07:13 24.8 °F 22.8 °F 29.68 in WNW 1.0 mph 2.0 mph 92 % 0.00 in 0 W/m2
07:18 25.0 °F 23.0 °F 29.68 in Calm     92 % 0.00 in 0 W/m2
07:23 25.0 °F 23.0 °F 29.68 in WNW 4.0 mph 7.0 mph 92 % 0.00 in 0 W/m2
07:28 25.3 °F 23.6 °F 29.68 in WNW 4.0 mph 7.0 mph 93 % 0.00 in 0 W/m2
07:33 25.9 °F 24.4 °F 29.69 in WNW 5.0 mph 6.0 mph 94 % 0.00 in 0 W/m2
07:38 26.2 °F 24.7 °F 29.68 in WNW 3.0 mph 5.0 mph 94 % 0.00 in 0 W/m2
07:43 26.6 °F 24.8 °F 29.68 in WNW 1.0 mph 2.0 mph 93 % 0.00 in 0 W/m2
07:48 26.8 °F 25.0 °F 29.68 in WNW 1.0 mph 2.0 mph 93 % 0.00 in 0 W/m2
07:53 26.8 °F 25.0 °F 29.68 in Calm     93 % 0.00 in 0 W/m2
07:58 26.6 °F 24.8 °F 29.69 in WNW 1.0 mph 2.0 mph 93 % 0.00 in 0 W/m2
08:03 26.6 °F 24.8 °F 29.69 in WNW 2.0 mph 4.0 mph 93 % 0.00 in 0 W/m2
08:08 26.4 °F 24.7 °F 29.69 in WNW 4.0 mph 5.0 mph 93 % 0.00 in 5 W/m2
08:14 26.4 °F 24.7 °F 29.70 in WNW 5.0 mph 7.0 mph 93 % 0.00 in 5 W/m2
08:19 26.8 °F 25.0 °F 29.70 in West 6.0 mph 8.0 mph 93 % 0.00 in 7 W/m2
08:24 27.5 °F 26.0 °F 29.70 in West 7.0 mph 10.0 mph 94 % 0.00 in 9 W/m2
08:29 28.4 °F 27.2 °F 29.70 in WNW 6.0 mph 8.0 mph 95 % 0.00 in 11 W/m2
08:34 28.9 °F 27.7 °F 29.70 in WNW 4.0 mph 7.0 mph 95 % 0.00 in 12 W/m2
08:39 29.1 °F 27.6 °F 29.70 in West 1.0 mph 3.0 mph 94 % 0.00 in 14 W/m2
08:44 29.1 °F 27.6 °F 29.70 in West 3.0 mph 5.0 mph 94 % 0.00 in 16 W/m2
08:49 29.1 °F 27.6 °F 29.70 in West 3.0 mph 6.0 mph 94 % 0.00 in 16 W/m2
08:59 29.8 °F 28.3 °F 29.69 in West 2.0 mph 5.0 mph 94 % 0.00 in 19 W/m2
09:04 30.2 °F 28.7 °F 29.69 in West 2.0 mph 5.0 mph 94 % 0.00 in 21 W/m2
09:14 30.7 °F 29.2 °F 29.71 in West 3.0 mph 5.0 mph 94 % 0.00 in 25 W/m2
09:19 30.7 °F 29.0 °F 29.70 in WNW 3.0 mph 7.0 mph 93 % 0.00 in 49 W/m2
09:24 31.3 °F 29.8 °F 29.70 in WNW 6.0 mph 8.0 mph 94 % 0.00 in 111 W/m2
09:29 31.6 °F 30.1 °F 29.71 in WNW 4.0 mph 7.0 mph 94 % 0.00 in 128 W/m2
09:34 32.4 °F 30.8 °F 29.70 in West 2.0 mph 7.0 mph 94 % 0.00 in 151 W/m2
09:39 32.7 °F 31.2 °F 29.71 in Calm   2.0 mph 94 % 0.00 in 114 W/m2
09:40 32.9 °F 31.4 °F 29.71 in West 1.0 mph 3.0 mph 94 % 0.00 in 151 W/m2
09:45 33.3 °F 31.7 °F 29.71 in Calm   1.0 mph 94 % 0.00 in 176 W/m2
09:50 34.0 °F 32.4 °F 29.71 in Calm     94 % 0.00 in 206 W/m2
09:55 34.3 °F 32.5 °F 29.71 in Calm   1.0 mph 93 % 0.00 in 207 W/m2
10:00 34.9 °F 33.1 °F 29.71 in West 1.0 mph 2.0 mph 93 % 0.00 in 199 W/m2
10:05 35.8 °F 34.0 °F 29.71 in West 3.0 mph 5.0 mph 93 % 0.00 in 135 W/m2
10:15 36.3 °F 33.7 °F 29.72 in WNW 4.0 mph 6.0 mph 90 % 0.00 in 169 W/m2
10:20 36.7 °F 34.0 °F 29.72 in WNW 1.0 mph 4.0 mph 90 % 0.00 in 199 W/m2
10:25 37.0 °F 34.1 °F 29.72 in Calm   2.0 mph 89 % 0.00 in 174 W/m2
10:31 37.2 °F 34.0 °F 29.72 in West 1.0 mph 2.0 mph 88 % 0.00 in 171 W/m2
10:36 37.2 °F 34.0 °F 29.72 in West 4.0 mph 7.0 mph 88 % 0.00 in 167 W/m2
10:41 37.4 °F 33.9 °F 29.72 in West 5.0 mph 6.0 mph 87 % 0.00 in 179 W/m2
10:46 37.6 °F 34.1 °F 29.72 in West 3.0 mph 6.0 mph 87 % 0.00 in 141 W/m2
10:51 37.6 °F 34.1 °F 29.72 in West 3.0 mph 5.0 mph 87 % 0.00 in 197 W/m2
10:56 37.9 °F 34.4 °F 29.72 in West 6.0 mph 9.0 mph 87 % 0.00 in 209 W/m2
11:01 38.1 °F 34.3 °F 29.71 in West 8.0 mph 12.0 mph 86 % 0.00 in 153 W/m2
11:06 38.3 °F 34.5 °F 29.71 in West 7.0 mph 11.0 mph 86 % 0.00 in 230 W/m2
11:16 38.7 °F 34.8 °F 29.71 in West 9.0 mph 13.0 mph 86 % 0.00 in 149 W/m2
11:21 38.7 °F 34.5 °F 29.71 in West 8.0 mph 12.0 mph 85 % 0.00 in 144 W/m2
11:31 38.7 °F 34.8 °F 29.71 in West 5.0 mph 9.0 mph 86 % 0.00 in 160 W/m2
11:36 38.8 °F 35.0 °F 29.71 in West 4.0 mph 9.0 mph 86 % 0.00 in 186 W/m2
11:41 39.0 °F 35.2 °F 29.70 in West 3.0 mph 7.0 mph 86 % 0.00 in 167 W/m2
11:46 39.2 °F 35.4 °F 29.70 in Calm   2.0 mph 86 % 0.00 in 165 W/m2
11:51 39.4 °F 35.2 °F 29.70 in Calm   1.0 mph 85 % 0.00 in 178 W/m2
11:56 39.4 °F 35.2 °F 29.70 in West 1.0 mph 2.0 mph 85 % 0.00 in 141 W/m2
12:01 39.6 °F 35.4 °F 29.70 in Calm   2.0 mph 85 % 0.00 in 211 W/m2
12:06 39.7 °F 35.6 °F 29.70 in Calm     85 % 0.00 in 127 W/m2
12:11 39.9 °F 35.5 °F 29.70 in Calm     84 % 0.00 in 141 W/m2
12:16 39.9 °F 35.2 °F 29.70 in Calm     83 % 0.00 in 123 W/m2
12:21 40.1 °F 35.4 °F 29.70 in Calm   1.0 mph 83 % 0.00 in 148 W/m2
12:26 40.3 °F 35.5 °F 29.70 in Calm     83 % 0.00 in 213 W/m2
12:31 40.5 °F 35.7 °F 29.70 in Calm     83 % 0.00 in 192 W/m2
12:36 40.8 °F 36.1 °F 29.70 in WSW 2.0 mph 5.0 mph 83 % 0.00 in 195 W/m2
12:41 41.0 °F 35.6 °F 29.70 in SW 1.0 mph 6.0 mph 81 % 0.00 in 165 W/m2
12:46 41.0 °F 35.6 °F 29.71 in SW 2.0 mph 5.0 mph 81 % 0.00 in 120 W/m2
12:51 40.6 °F 35.3 °F 29.71 in SW 3.0 mph 8.0 mph 81 % 0.00 in 79 W/m2
12:56 40.3 °F 34.9 °F 29.71 in SW 1.0 mph 4.0 mph 81 % 0.00 in 81 W/m2
13:01 39.9 °F 34.9 °F 29.71 in SW 3.0 mph 6.0 mph 82 % 0.00 in 135 W/m2
13:06 39.6 °F 34.8 °F 29.71 in SSW 6.0 mph 10.0 mph 83 % 0.00 in 155 W/m2
13:11 39.4 °F 34.6 °F 29.71 in SSW 5.0 mph 7.0 mph 83 % 0.00 in 98 W/m2
13:16 39.4 °F 34.6 °F 29.71 in SSW 4.0 mph 7.0 mph 83 % 0.00 in 84 W/m2
13:21 39.0 °F 34.3 °F 29.71 in SSW 5.0 mph 7.0 mph 83 % 0.00 in 95 W/m2
13:26 38.8 °F 34.4 °F 29.72 in SSW 4.0 mph 7.0 mph 84 % 0.00 in 100 W/m2
13:31 38.7 °F 34.2 °F 29.71 in SSW 3.0 mph 5.0 mph 84 % 0.00 in 125 W/m2
13:36 38.7 °F 34.2 °F 29.71 in SW 3.0 mph 6.0 mph 84 % 0.00 in 125 W/m2
13:41 38.7 °F 34.2 °F 29.71 in SW 3.0 mph 5.0 mph 84 % 0.00 in 120 W/m2
13:47 38.7 °F 34.2 °F 29.70 in SW 2.0 mph 5.0 mph 84 % 0.00 in 90 W/m2
13:52 38.7 °F 34.2 °F 29.70 in SW 3.0 mph 5.0 mph 84 % 0.00 in 77 W/m2
13:57 38.7 °F 34.2 °F 29.70 in SW 3.0 mph 5.0 mph 84 % 0.00 in 81 W/m2
14:02 38.8 °F 34.4 °F 29.70 in SSW 5.0 mph 9.0 mph 84 % 0.00 in 60 W/m2
14:07 38.7 °F 33.9 °F 29.70 in SSW 4.0 mph 7.0 mph 83 % 0.00 in 62 W/m2
14:12 38.7 °F 33.9 °F 29.70 in SSW 2.0 mph 7.0 mph 83 % 0.00 in 65 W/m2
14:17 38.5 °F 33.8 °F 29.70 in SSW 4.0 mph 7.0 mph 83 % 0.00 in 63 W/m2
14:22 38.5 °F 33.8 °F 29.69 in South 5.0 mph 8.0 mph 83 % 0.00 in 63 W/m2
14:32 38.3 °F 33.6 °F 29.69 in SSW 5.0 mph 9.0 mph 83 % 0.00 in 63 W/m2
14:37 38.3 °F 33.6 °F 29.69 in SSW 5.0 mph 8.0 mph 83 % 0.00 in 62 W/m2
14:40 38.3 °F 33.6 °F 29.69 in SSW 4.0 mph 9.0 mph 83 % 0.00 in 60 W/m2
14:45 38.3 °F 33.6 °F 29.69 in SW 4.0 mph 7.0 mph 83 % 0.00 in 56 W/m2
14:50 38.3 °F 33.6 °F 29.69 in SSW 5.0 mph 8.0 mph 83 % 0.00 in 49 W/m2
14:55 38.1 °F 33.4 °F 29.69 in SSW 5.0 mph 7.0 mph 83 % 0.00 in 42 W/m2
15:00 38.1 °F 33.7 °F 29.69 in SSW 4.0 mph 10.0 mph 84 % 0.00 in 35 W/m2
15:05 37.9 °F 33.5 °F 29.68 in SSW 7.0 mph 10.0 mph 84 % 0.00 in 28 W/m2
15:10 37.8 °F 33.4 °F 29.69 in SSW 7.0 mph 13.0 mph 84 % 0.00 in 21 W/m2
15:15 37.6 °F 33.5 °F 29.69 in SSW 5.0 mph 8.0 mph 85 % 0.00 in 16 W/m2
15:20 37.4 °F 33.3 °F 29.69 in SSW 5.0 mph 12.0 mph 85 % 0.00 in 12 W/m2
15:25 37.4 °F 33.3 °F 29.69 in SW 6.0 mph 8.0 mph 85 % 0.00 in 11 W/m2
15:30 37.4 °F 33.6 °F 29.69 in SSW 5.0 mph 9.0 mph 86 % 0.00 in 9 W/m2
15:35 37.4 °F 33.6 °F 29.69 in SSW 5.0 mph 10.0 mph 86 % 0.00 in 5 W/m2
15:40 37.6 °F 33.8 °F 29.69 in SSW 5.0 mph 10.0 mph 86 % 0.00 in 5 W/m2
15:45 37.4 °F 33.6 °F 29.69 in SSW 7.0 mph 12.0 mph 86 % 0.00 in 0 W/m2
15:50 37.6 °F 33.8 °F 29.69 in SSW 6.0 mph 12.0 mph 86 % 0.00 in 0 W/m2
15:55 37.4 °F 33.6 °F 29.68 in South 5.0 mph 8.0 mph 86 % 0.00 in 0 W/m2
16:00 37.4 °F 33.6 °F 29.68 in South 5.0 mph 8.0 mph 86 % 0.00 in 0 W/m2
16:05 37.2 °F 33.4 °F 29.68 in SSE 5.0 mph 8.0 mph 86 % 0.00 in 0 W/m2
16:10 37.2 °F 33.4 °F 29.68 in South 5.0 mph 10.0 mph 86 % 0.00 in 0 W/m2
16:15 37.0 °F 33.2 °F 29.68 in South 6.0 mph 12.0 mph 86 % 0.00 in 0 W/m2
16:21 37.0 °F 33.2 °F 29.68 in South 5.0 mph 11.0 mph 86 % 0.00 in 0 W/m2
16:26 37.0 °F 33.2 °F 29.68 in South 5.0 mph 9.0 mph 86 % 0.00 in 0 W/m2
16:31 36.9 °F 33.4 °F 29.68 in South 5.0 mph 7.0 mph 87 % 0.00 in 0 W/m2
16:36 36.7 °F 33.2 °F 29.67 in SSE 6.0 mph 10.0 mph 87 % 0.00 in 0 W/m2
16:41 36.5 °F 33.0 °F 29.67 in SSE 7.0 mph 10.0 mph 87 % 0.00 in 0 W/m2
16:46 36.3 °F 32.8 °F 29.67 in SSE 4.0 mph 7.0 mph 87 % 0.00 in 0 W/m2
16:51 36.1 °F 32.6 °F 29.67 in South 1.0 mph 5.0 mph 87 % 0.00 in 0 W/m2
16:56 36.1 °F 32.9 °F 29.67 in SSW 4.0 mph 10.0 mph 88 % 0.00 in 0 W/m2
17:01 36.3 °F 33.1 °F 29.67 in SSW 4.0 mph 7.0 mph 88 % 0.00 in 0 W/m2
17:06 36.7 °F 33.5 °F 29.66 in SW 4.0 mph 10.0 mph 88 % 0.00 in 0 W/m2
17:11 36.9 °F 33.6 °F 29.66 in South 6.0 mph 12.0 mph 88 % 0.00 in 0 W/m2
17:12 37.0 °F 33.8 °F 29.66 in South 6.0 mph 12.0 mph 88 % 0.00 in 0 W/m2
17:17 37.6 °F 34.1 °F 29.66 in SSW 11.0 mph 18.0 mph 87 % 0.00 in 0 W/m2
17:22 37.9 °F 34.1 °F 29.66 in SSW 10.0 mph 14.0 mph 86 % 0.00 in 0 W/m2
17:27 38.1 °F 34.3 °F 29.66 in SSW 6.0 mph 11.0 mph 86 % 0.00 in 0 W/m2
17:32 38.1 °F 34.0 °F 29.66 in SW 4.0 mph 8.0 mph 85 % 0.00 in 0 W/m2
17:37 38.1 °F 34.3 °F 29.66 in SW 7.0 mph 14.0 mph 86 % 0.00 in 0 W/m2
17:42 38.3 °F 34.5 °F 29.66 in SW 7.0 mph 11.0 mph 86 % 0.00 in 0 W/m2
17:47 38.5 °F 34.7 °F 29.66 in SW 7.0 mph 13.0 mph 86 % 0.00 in 0 W/m2
17:52 38.5 °F 34.4 °F 29.66 in SW 5.0 mph 8.0 mph 85 % 0.00 in 0 W/m2
17:57 38.5 °F 34.4 °F 29.66 in SW 8.0 mph 10.0 mph 85 % 0.00 in 0 W/m2
18:02 38.5 °F 34.4 °F 29.66 in SW 8.0 mph 15.0 mph 85 % 0.00 in 0 W/m2
18:03 38.5 °F 34.4 °F 29.66 in SW 9.0 mph 15.0 mph 85 % 0.00 in 0 W/m2
18:08 38.3 °F 34.2 °F 29.65 in SW 7.0 mph 12.0 mph 85 % 0.00 in 0 W/m2
18:13 38.1 °F 34.3 °F 29.65 in SW 8.0 mph 13.0 mph 86 % 0.00 in 0 W/m2
18:18 38.1 °F 34.3 °F 29.65 in SW 7.0 mph 10.0 mph 86 % 0.00 in 0 W/m2
18:23 37.9 °F 34.1 °F 29.65 in SW 4.0 mph 8.0 mph 86 % 0.00 in 0 W/m2
18:28 37.9 °F 34.1 °F 29.65 in SW 6.0 mph 9.0 mph 86 % 0.00 in 0 W/m2
18:33 37.9 °F 34.1 °F 29.65 in SSW 9.0 mph 13.0 mph 86 % 0.00 in 0 W/m2
18:38 37.8 °F 33.9 °F 29.65 in SSW 8.0 mph 14.0 mph 86 % 0.00 in 0 W/m2
18:43 37.8 °F 33.9 °F 29.64 in SW 9.0 mph 13.0 mph 86 % 0.00 in 0 W/m2
18:48 37.8 °F 34.2 °F 29.64 in SW 8.0 mph 12.0 mph 87 % 0.00 in 0 W/m2
18:53 37.8 °F 34.2 °F 29.64 in SW 9.0 mph 14.0 mph 87 % 0.00 in 0 W/m2
18:58 37.8 °F 34.2 °F 29.65 in SW 10.0 mph 15.0 mph 87 % 0.00 in 0 W/m2
19:03 37.8 °F 34.2 °F 29.64 in SW 9.0 mph 13.0 mph 87 % 0.00 in 0 W/m2
19:08 37.8 °F 34.2 °F 29.64 in SSW 10.0 mph 18.0 mph 87 % 0.00 in 0 W/m2
19:13 37.8 °F 34.2 °F 29.64 in SSW 11.0 mph 15.0 mph 87 % 0.00 in 0 W/m2
19:18 37.8 °F 34.2 °F 29.64 in SSW 12.0 mph 18.0 mph 87 % 0.00 in 0 W/m2
19:23 37.6 °F 34.3 °F 29.64 in SSW 7.0 mph 13.0 mph 88 % 0.00 in 0 W/m2
19:29 37.6 °F 34.3 °F 29.63 in SSW 6.0 mph 9.0 mph 88 % 0.00 in 0 W/m2
19:34 37.6 °F 34.3 °F 29.63 in South 5.0 mph 9.0 mph 88 % 0.00 in 0 W/m2
19:39 37.4 °F 34.2 °F 29.63 in South 6.0 mph 13.0 mph 88 % 0.00 in 0 W/m2
19:44 37.4 °F 34.5 °F 29.62 in SSW 6.0 mph 10.0 mph 89 % 0.00 in 0 W/m2
19:49 37.4 °F 34.5 °F 29.62 in South 5.0 mph 7.0 mph 89 % 0.00 in 0 W/m2
19:54 37.4 °F 34.5 °F 29.62 in SSW 7.0 mph 15.0 mph 89 % 0.00 in 0 W/m2
19:59 37.6 °F 34.9 °F 29.61 in South 9.0 mph 18.0 mph 90 % 0.01 in 0 W/m2
20:04 37.6 °F 34.9 °F 29.60 in SSW 6.0 mph 11.0 mph 90 % 0.01 in 0 W/m2
20:09 37.6 °F 34.9 °F 29.60 in SSW 6.0 mph 12.0 mph 90 % 0.01 in 0 W/m2
20:14 37.6 °F 35.2 °F 29.60 in SSW 7.0 mph 14.0 mph 91 % 0.01 in 0 W/m2
20:19 37.6 °F 35.2 °F 29.60 in SSW 10.0 mph 16.0 mph 91 % 0.01 in 0 W/m2
20:21 37.6 °F 35.2 °F 29.60 in SSW 10.0 mph 21.0 mph 91 % 0.01 in 0 W/m2
20:26 37.6 °F 35.2 °F 29.59 in SSW 10.0 mph 15.0 mph 91 % 0.02 in 0 W/m2
20:31 37.6 °F 35.2 °F 29.59 in SSW 11.0 mph 18.0 mph 91 % 0.02 in 0 W/m2
20:36 37.6 °F 35.2 °F 29.58 in SSW 9.0 mph 14.0 mph 91 % 0.02 in 0 W/m2
20:41 37.6 °F 35.5 °F 29.58 in SSW 10.0 mph 14.0 mph 92 % 0.02 in 0 W/m2
20:46 37.6 °F 35.5 °F 29.58 in SSW 11.0 mph 16.0 mph 92 % 0.02 in 0 W/m2
20:51 37.6 °F 35.5 °F 29.58 in SSW 11.0 mph 19.0 mph 92 % 0.02 in 0 W/m2
20:56 37.8 °F 35.6 °F 29.58 in SSW 12.0 mph 20.0 mph 92 % 0.02 in 0 W/m2
21:01 37.8 °F 35.6 °F 29.57 in SSW 12.0 mph 21.0 mph 92 % 0.02 in 0 W/m2
21:06 37.6 °F 35.5 °F 29.56 in SSW 14.0 mph 25.0 mph 92 % 0.02 in 0 W/m2
21:11 37.6 °F 35.5 °F 29.56 in SSW 12.0 mph 18.0 mph 92 % 0.02 in 0 W/m2
21:16 37.6 °F 35.7 °F 29.55 in SSW 14.0 mph 28.0 mph 93 % 0.02 in 0 W/m2
21:21 37.8 °F 35.9 °F 29.55 in SSW 16.0 mph 23.0 mph 93 % 0.02 in 0 W/m2
21:26 37.8 °F 35.9 °F 29.55 in SSW 15.0 mph 24.0 mph 93 % 0.02 in 0 W/m2
21:32 37.8 °F 35.9 °F 29.54 in SSW 14.0 mph 25.0 mph 93 % 0.02 in 0 W/m2
21:37 37.8 °F 35.9 °F 29.53 in SW 15.0 mph 24.0 mph 93 % 0.02 in 0 W/m2
21:42 37.8 °F 35.9 °F 29.53 in SSW 11.0 mph 20.0 mph 93 % 0.02 in 0 W/m2
21:47 37.8 °F 35.9 °F 29.53 in SW 13.0 mph 30.0 mph 93 % 0.02 in 0 W/m2
21:52 37.8 °F 35.9 °F 29.52 in SSW 13.0 mph 24.0 mph 93 % 0.02 in 0 W/m2
21:57 37.8 °F 35.9 °F 29.52 in SSW 14.0 mph 26.0 mph 93 % 0.01 in 0 W/m2
22:03 37.8 °F 35.9 °F 29.52 in SSW 13.0 mph 23.0 mph 93 % 0.01 in 0 W/m2
22:08 37.8 °F 35.9 °F 29.52 in SSW 14.0 mph 22.0 mph 93 % 0.01 in 0 W/m2
22:13 37.8 °F 35.9 °F 29.52 in SW 12.0 mph 20.0 mph 93 % 0.01 in 0 W/m2
22:18 37.8 °F 35.9 °F 29.52 in SSW 12.0 mph 18.0 mph 93 % 0.01 in 0 W/m2
22:23 37.9 °F 36.1 °F 29.52 in SSW 10.0 mph 16.0 mph 93 % 0.00 in 0 W/m2
22:28 37.9 °F 36.1 °F 29.52 in SSW 10.0 mph 19.0 mph 93 % 0.00 in 0 W/m2
22:33 37.9 °F 36.1 °F 29.52 in SSW 11.0 mph 19.0 mph 93 % 0.00 in 0 W/m2
22:38 37.9 °F 36.1 °F 29.52 in SSW 12.0 mph 22.0 mph 93 % 0.00 in 0 W/m2
22:43 38.1 °F 36.3 °F 29.51 in SSW 10.0 mph 18.0 mph 93 % 0.00 in 0 W/m2
22:46 38.1 °F 36.3 °F 29.51 in SSW 9.0 mph 16.0 mph 93 % 0.00 in 0 W/m2
22:51 38.1 °F 36.3 °F 29.51 in SSW 11.0 mph 16.0 mph 93 % 0.00 in 0 W/m2
22:56 38.1 °F 36.3 °F 29.51 in SSW 11.0 mph 18.0 mph 93 % 0.00 in 0 W/m2
23:01 38.3 °F 36.5 °F 29.51 in SW 11.0 mph 16.0 mph 93 % 0.00 in 0 W/m2
23:06 38.5 °F 36.6 °F 29.51 in SW 11.0 mph 21.0 mph 93 % 0.00 in 0 W/m2
23:11 38.5 °F 36.9 °F 29.51 in SW 10.0 mph 19.0 mph 94 % 0.00 in 0 W/m2
23:21 38.7 °F 36.8 °F 29.51 in SSW 10.0 mph 15.0 mph 93 % 0.00 in 0 W/m2
23:31 38.8 °F 37.0 °F 29.50 in SW 7.0 mph 11.0 mph 93 % 0.00 in 0 W/m2
23:32 38.8 °F 37.0 °F 29.51 in SW 7.0 mph 11.0 mph 93 % 0.00 in 0 W/m2
23:37 39.0 °F 37.4 °F 29.50 in SW 8.0 mph 12.0 mph 94 % 0.00 in 0 W/m2
23:42 39.0 °F 37.4 °F 29.50 in SW 9.0 mph 13.0 mph 94 % 0.00 in 0 W/m2
23:47 39.4 °F 37.8 °F 29.50 in SW 9.0 mph 13.0 mph 94 % 0.00 in 0 W/m2
23:52 39.6 °F 38.0 °F 29.50 in SW 8.0 mph 11.0 mph 94 % 0.00 in 0 W/m2
23:57 39.6 °F 38.0 °F 29.50 in SW 9.0 mph 14.0 mph 94 % 0.00 in 0 W/m2
Delerius-Weather
Compliments of Weather Underground - 2.25 mb

Data updates at regular intervals.